createdAt,value
2022-09-12T00:01:52.878Z,100.00
2022-09-12T00:05:07.438Z,100.00
2022-09-12T00:08:19.567Z,100.00
2022-09-12T00:11:32.123Z,100.00
2022-09-12T00:14:45.883Z,100.00
2022-09-12T00:17:57.273Z,100.00
2022-09-12T00:21:12.137Z,100.00
2022-09-12T00:24:23.851Z,100.00
2022-09-12T00:27:35.821Z,100.00
2022-09-12T00:30:51.995Z,100.00
2022-09-12T00:34:05.757Z,100.00
2022-09-12T00:37:17.602Z,100.00
2022-09-12T00:40:30.641Z,100.00
2022-09-12T00:43:48.251Z,100.00
2022-09-12T00:47:03.549Z,100.00
2022-09-12T00:50:18.900Z,100.00
2022-09-12T00:53:31.341Z,100.00
2022-09-12T00:56:45.925Z,100.00
2022-09-12T01:00:02.166Z,100.00
2022-09-12T01:03:18.725Z,100.00
2022-09-12T01:06:35.298Z,100.00
2022-09-12T01:13:50.062Z,100.00
2022-09-12T01:17:01.612Z,100.00
2022-09-12T01:20:55.621Z,100.00
2022-09-12T01:24:41.417Z,100.00
2022-09-12T01:28:20.767Z,100.00
2022-09-12T01:31:38.412Z,100.00
2022-09-12T01:34:56.202Z,100.00
2022-09-12T01:42:23.183Z,100.00
2022-09-12T01:45:40.039Z,100.00
2022-09-12T01:48:55.783Z,100.00
2022-09-12T01:52:15.505Z,100.00
2022-09-12T01:55:31.252Z,100.00
2022-09-12T01:58:48.327Z,100.00
2022-09-12T02:02:06.398Z,100.00
2022-09-12T02:05:23.162Z,100.00
2022-09-12T02:08:39.547Z,100.00
2022-09-12T02:11:52.775Z,100.00
2022-09-12T02:15:09.506Z,100.00
2022-09-12T02:18:23.243Z,100.00
2022-09-12T02:21:35.948Z,100.00
2022-09-12T02:24:53.512Z,100.00
2022-09-12T02:28:11.099Z,100.00
2022-09-12T02:31:29.973Z,100.00
2022-09-12T02:34:49.809Z,100.00
2022-09-12T02:38:08.673Z,100.00
2022-09-12T02:41:24.137Z,100.00
2022-09-12T02:44:37.855Z,100.00
2022-09-12T02:47:53.403Z,100.00
2022-09-12T02:51:05.766Z,100.00
2022-09-12T02:54:19.517Z,100.00
2022-09-12T02:57:31.430Z,100.00
2022-09-12T03:00:51.403Z,100.00
2022-09-12T03:04:27.054Z,100.00
2022-09-12T03:07:52.078Z,100.00
2022-09-12T03:12:00.922Z,100.00
2022-09-12T03:23:01.312Z,100.00
2022-09-12T03:26:17.112Z,100.00
2022-09-12T03:33:47.994Z,100.00
2022-09-12T03:37:02.292Z,100.00
2022-09-12T03:40:18.435Z,100.00
2022-09-12T05:51:22.841Z,100.00
2022-09-12T07:32:33.147Z,89.64
2022-09-12T07:35:45.119Z,86.26
2022-09-12T07:39:01.566Z,83.45
2022-09-12T07:42:15.299Z,83.36
2022-09-12T07:45:26.884Z,82.28
2022-09-12T07:48:38.459Z,80.45
2022-09-12T07:51:50.109Z,81.07
2022-09-12T07:55:01.814Z,76.11
2022-09-12T07:58:13.485Z,70.90
2022-09-12T08:01:27.338Z,67.56
2022-09-12T08:04:39.465Z,65.61
2022-09-12T08:07:53.638Z,66.69
2022-09-12T08:11:07.928Z,69.70
2022-09-12T08:14:19.527Z,68.63
2022-09-12T08:17:31.263Z,66.97
2022-09-12T08:20:43.326Z,66.47
2022-09-12T08:23:58.148Z,63.01
2022-09-12T08:27:10.771Z,64.61
2022-09-12T08:30:22.761Z,64.14
2022-09-12T08:33:36.386Z,59.04
2022-09-12T08:36:48.324Z,59.56
2022-09-12T08:39:59.831Z,58.88
2022-09-12T08:43:17.276Z,59.33
2022-09-12T08:46:33.946Z,55.89
2022-09-12T08:49:51.930Z,58.18
2022-09-12T08:53:08.930Z,59.80
2022-09-12T08:56:20.774Z,63.70
2022-09-12T08:59:32.682Z,64.84
2022-09-12T09:03:08.342Z,65.10
2022-09-12T09:06:32.081Z,59.82
2022-09-12T09:09:56.141Z,56.26
2022-09-12T09:13:13.007Z,53.17
2022-09-12T09:16:31.435Z,50.98
2022-09-12T09:19:50.807Z,51.50
2022-09-12T09:23:07.588Z,52.46
2022-09-12T09:26:26.451Z,51.30
2022-09-12T09:29:44.196Z,53.60
2022-09-12T09:32:58.877Z,52.77
2022-09-12T09:36:20.234Z,52.63
2022-09-12T09:39:52.779Z,49.80
2022-09-12T09:43:10.960Z,49.07
2022-09-12T09:46:22.741Z,46.86
2022-09-12T09:49:38.190Z,48.41
2022-09-12T09:52:50.879Z,46.95
2022-09-12T09:56:06.695Z,48.53
2022-09-12T09:59:22.442Z,51.50
2022-09-12T10:02:34.341Z,51.62
2022-09-12T10:05:54.279Z,48.76
2022-09-12T10:09:28.312Z,45.20
2022-09-12T10:12:40.134Z,44.78
2022-09-12T10:16:04.909Z,45.68
2022-09-12T10:19:26.655Z,45.79
2022-09-12T10:22:38.696Z,45.74
2022-09-12T10:25:55.701Z,48.92
2022-09-12T10:29:18.936Z,50.18
2022-09-12T10:32:37.821Z,47.24
2022-09-12T10:35:56.225Z,47.72
2022-09-12T10:39:09.791Z,47.40
2022-09-12T10:42:23.517Z,46.04
2022-09-12T10:45:39.530Z,50.41
2022-09-12T10:48:53.684Z,49.18
2022-09-12T10:52:24.776Z,50.61
2022-09-12T10:55:42.656Z,50.95
2022-09-12T11:00:07.310Z,49.69
2022-09-12T11:24:35.929Z,47.66
2022-09-12T16:04:32.454Z,57.31
2022-09-12T16:07:44.138Z,58.75
2022-09-12T16:11:00.122Z,59.30
2022-09-12T16:14:12.329Z,57.12
2022-09-12T16:17:23.993Z,59.82
2022-09-12T16:20:35.813Z,60.49
2022-09-12T16:23:50.042Z,63.09
2022-09-12T16:27:01.865Z,61.67
2022-09-12T16:30:16.543Z,64.23
2022-09-12T16:33:28.769Z,64.62
2022-09-12T16:36:40.715Z,65.43
2022-09-12T16:39:52.519Z,66.09
2022-09-12T16:43:04.539Z,68.49
2022-09-12T16:46:19.679Z,69.08
2022-09-12T16:49:33.925Z,69.17
2022-09-12T16:52:45.876Z,71.84
2022-09-12T16:55:57.726Z,72.34
2022-09-12T16:59:09.850Z,73.63
2022-09-12T17:02:21.627Z,72.84
2022-09-12T17:05:33.844Z,73.32
2022-09-12T17:08:48.181Z,73.04
2022-09-12T17:12:00.734Z,72.30
2022-09-12T17:15:14.111Z,71.60
2022-09-12T17:18:25.974Z,72.58
2022-09-12T17:21:38.078Z,73.50
2022-09-12T17:24:49.967Z,73.02
2022-09-12T17:28:02.032Z,73.10
2022-09-12T17:31:17.361Z,74.70
2022-09-12T17:34:30.020Z,75.43
2022-09-12T17:37:43.232Z,75.49
2022-09-12T17:40:59.706Z,74.43
2022-09-12T17:44:10.558Z,74.82
2022-09-12T17:47:22.431Z,75.39
2022-09-12T17:50:37.652Z,76.91
2022-09-12T17:53:49.092Z,79.40
2022-09-12T17:57:01.268Z,79.57
2022-09-12T18:00:16.454Z,78.98
2022-09-12T18:03:31.347Z,79.97
2022-09-12T18:06:46.098Z,78.52
2022-09-12T18:09:58.525Z,77.87
2022-09-12T18:13:11.078Z,79.17
2022-09-12T18:16:22.919Z,80.83
2022-09-12T18:19:35.862Z,84.02
2022-09-12T18:22:48.391Z,82.26
2022-09-12T18:26:08.432Z,83.84
2022-09-12T18:29:21.636Z,85.34
2022-09-12T18:32:33.861Z,86.16
2022-09-12T18:35:46.661Z,83.40
2022-09-12T18:38:59.058Z,84.32
2022-09-12T18:42:11.485Z,84.76
2022-09-12T18:45:23.554Z,83.97
2022-09-12T18:48:35.983Z,83.86
2022-09-12T18:51:48.011Z,84.90
2022-09-12T18:54:59.674Z,86.12
2022-09-12T18:58:12.818Z,87.55
2022-09-12T19:01:28.252Z,89.56
2022-09-12T19:04:40.172Z,89.18
2022-09-12T19:07:51.933Z,91.45
2022-09-12T19:11:04.254Z,92.58
2022-09-12T19:14:16.391Z,91.46
2022-09-12T19:17:28.286Z,89.13
2022-09-12T19:20:42.756Z,91.21
2022-09-12T19:23:55.028Z,86.68
2022-09-12T19:27:08.043Z,85.90
2022-09-12T19:30:20.909Z,85.25
2022-09-12T19:33:33.438Z,85.50
2022-09-12T19:36:47.257Z,85.38
2022-09-12T19:39:59.434Z,85.56
2022-09-12T19:43:11.862Z,87.62
2022-09-12T19:46:26.644Z,86.85
2022-09-12T19:49:38.450Z,86.96
2022-09-12T19:52:50.608Z,86.95
2022-09-12T19:56:06.935Z,88.17
2022-09-12T19:59:19.241Z,88.36
2022-09-12T20:02:31.061Z,88.89
2022-09-12T20:05:43.106Z,89.58
2022-09-12T20:08:54.850Z,89.51
2022-09-12T20:12:06.921Z,91.30
2022-09-12T20:15:19.630Z,92.55
2022-09-12T20:18:31.359Z,93.96
2022-09-12T20:21:43.809Z,95.29
2022-09-12T20:24:55.930Z,95.55
2022-09-12T20:28:08.022Z,96.50
2022-09-12T20:31:22.128Z,96.86
2022-09-12T20:34:34.068Z,97.80
2022-09-12T20:37:45.871Z,99.21
2022-09-12T20:40:57.887Z,99.66
2022-09-12T20:44:10.041Z,100.00
2022-09-12T20:47:21.664Z,100.00
2022-09-12T20:50:33.294Z,100.00
2022-09-12T20:53:44.857Z,100.00
2022-09-12T20:56:56.411Z,100.00
2022-09-12T21:00:09.475Z,100.00
2022-09-12T21:03:21.859Z,100.00
2022-09-12T21:06:33.655Z,100.00
2022-09-12T21:09:45.420Z,100.00
2022-09-12T21:12:58.173Z,100.00
2022-09-12T21:16:13.058Z,100.00
2022-09-12T21:19:24.910Z,100.00
2022-09-12T21:22:37.338Z,100.00
2022-09-12T21:25:52.453Z,100.00
2022-09-12T21:29:03.186Z,100.00
2022-09-12T21:32:15.201Z,100.00
2022-09-12T21:35:26.772Z,100.00
2022-09-12T21:38:39.842Z,100.00
2022-09-12T21:41:51.660Z,100.00
2022-09-12T21:45:03.348Z,100.00
2022-09-12T21:48:15.259Z,100.00
2022-09-12T21:51:27.179Z,100.00
2022-09-12T21:54:39.198Z,100.00
2022-09-12T21:57:51.181Z,100.00
2022-09-12T22:01:04.820Z,100.00
2022-09-12T22:04:19.057Z,100.00
2022-09-12T22:07:31.785Z,100.00
2022-09-12T22:10:43.877Z,100.00
2022-09-12T22:13:55.747Z,100.00
2022-09-12T22:17:08.158Z,100.00
2022-09-12T22:20:20.043Z,100.00
2022-09-12T22:23:46.279Z,100.00
2022-09-12T22:26:59.152Z,100.00
2022-09-12T22:30:13.473Z,100.00
2022-09-12T22:33:25.119Z,100.00
2022-09-12T22:36:38.922Z,100.00
2022-09-12T22:39:50.983Z,100.00
2022-09-12T22:43:02.869Z,100.00
2022-09-12T22:46:16.339Z,100.00
2022-09-12T22:49:28.413Z,100.00
2022-09-12T22:52:40.391Z,100.00
2022-09-12T22:55:52.496Z,100.00
2022-09-12T23:06:37.164Z,100.00
2022-09-12T23:09:50.155Z,100.00
2022-09-12T23:13:01.884Z,100.00
2022-09-12T23:16:18.688Z,100.00
2022-09-12T23:19:30.452Z,100.00
2022-09-12T23:22:43.013Z,100.00
2022-09-12T23:25:56.603Z,100.00
2022-09-12T23:29:09.637Z,100.00
2022-09-12T23:32:21.282Z,100.00
2022-09-12T23:35:32.880Z,100.00
2022-09-12T23:38:45.339Z,100.00
2022-09-12T23:41:59.673Z,100.00
2022-09-12T23:45:12.825Z,100.00
2022-09-12T23:48:24.629Z,100.00
2022-09-12T23:51:36.385Z,100.00
2022-09-12T23:54:48.095Z,100.00
2022-09-12T23:58:00.870Z,100.00
